PSEPV SBRJ-SBGR
Flight info
| Callsign | PSEPV |
|---|---|
| Flight time | N/A |
| Altitude | 26000 |
| Route | ESORU UZ10 EDMUS |
| Aircraft | EPIC/L-SDFGRWY/S |
Departure
| Time | 2026-05-07 22:42 |
|---|---|
| Airport | Santos Dumont Airport (SBRJ) |
Arrival
| Time | N/A |
|---|---|
| Airport | São Paulo/Guarulhos–Governor André Franco Montoro International Airport (SBGR) |
| Time | Latitude | Longitude | Altitude | Speed | Heading |
|---|---|---|---|---|---|
| 2026-05-07 22:32 | -22.90525 | -43.16508 | 20 ft | 0 kts | 177° |
| 2026-05-07 22:38 | -22.90527 | -43.16508 | 20 ft | 2 kts | 177° |
| 2026-05-07 22:38 | -22.90538 | -43.16504 | 20 ft | 1 kts | 210° |
| 2026-05-07 22:38 | -22.90540 | -43.16510 | 20 ft | 0 kts | 294° |
| 2026-05-07 22:38 | -22.90536 | -43.16512 | 20 ft | 0 kts | 354° |
| 2026-05-07 22:39 | -22.90527 | -43.16511 | 20 ft | 6 kts | 8° |
| 2026-05-07 22:39 | -22.90488 | -43.16499 | 20 ft | 3 kts | 89° |
| 2026-05-07 22:39 | -22.90488 | -43.16489 | 20 ft | 0 kts | 89° |
| 2026-05-07 22:40 | -22.90483 | -43.16442 | 20 ft | 16 kts | 78° |
| 2026-05-07 22:40 | -22.90467 | -43.16343 | 17 ft | 5 kts | 93° |
| 2026-05-07 22:40 | -22.90483 | -43.16326 | 16 ft | 0 kts | 177° |
| 2026-05-07 22:41 | -22.90496 | -43.16325 | 16 ft | 21 kts | 174° |
| 2026-05-07 22:41 | -22.91050 | -43.16302 | 90 ft | 119 kts | 174° |
| 2026-05-07 22:42 | -22.91941 | -43.16223 | 659 ft | 144 kts | 164° |
| 2026-05-07 22:42 | -22.92800 | -43.15595 | 1526 ft | 157 kts | 135° |
| 2026-05-07 22:42 | -22.93580 | -43.14851 | 2649 ft | 153 kts | 136° |
| 2026-05-07 22:42 | -22.94355 | -43.14125 | 3702 ft | 154 kts | 136° |
| 2026-05-07 22:43 | -22.95274 | -43.13385 | 4395 ft | 178 kts | 146° |
| 2026-05-07 22:43 | -22.96193 | -43.12462 | 5164 ft | 188 kts | 134° |
| 2026-05-07 22:43 | -22.97157 | -43.11517 | 6036 ft | 192 kts | 135° |
| 2026-05-07 22:43 | -22.98149 | -43.10573 | 6930 ft | 194 kts | 135° |
| 2026-05-07 22:44 | -22.99204 | -43.09685 | 7779 ft | 200 kts | 153° |
| 2026-05-07 22:44 | -23.00585 | -43.09652 | 8649 ft | 209 kts | 198° |
| 2026-05-07 22:44 | -23.01729 | -43.10567 | 9511 ft | 206 kts | 220° |
| 2026-05-07 22:44 | -23.02808 | -43.11579 | 10116 ft | 208 kts | 219° |
| 2026-05-07 22:45 | -23.03926 | -43.12592 | 10648 ft | 212 kts | 218° |
| 2026-05-07 22:45 | -23.04964 | -43.13718 | 11190 ft | 215 kts | 236° |
| 2026-05-07 22:45 | -23.05620 | -43.15174 | 11803 ft | 213 kts | 252° |
| 2026-05-07 22:45 | -23.05871 | -43.16735 | 12373 ft | 213 kts | 268° |
| 2026-05-07 22:46 | -23.05768 | -43.18328 | 12933 ft | 213 kts | 273° |
| 2026-05-07 22:46 | -23.05703 | -43.19921 | 13459 ft | 215 kts | 270° |
| 2026-05-07 22:46 | -23.05671 | -43.21553 | 13984 ft | 217 kts | 270° |
| 2026-05-07 22:46 | -23.05646 | -43.23185 | 14509 ft | 218 kts | 269° |
| 2026-05-07 22:47 | -23.05624 | -43.24828 | 15033 ft | 219 kts | 269° |
| 2026-05-07 22:47 | -23.05602 | -43.26469 | 15503 ft | 220 kts | 269° |
| 2026-05-07 22:47 | -23.05579 | -43.28147 | 15944 ft | 223 kts | 269° |
| 2026-05-07 22:47 | -23.05557 | -43.29821 | 16382 ft | 225 kts | 269° |
| 2026-05-07 22:48 | -23.05533 | -43.31507 | 16822 ft | 226 kts | 268° |
| 2026-05-07 22:48 | -23.05510 | -43.33234 | 17263 ft | 228 kts | 268° |
| 2026-05-07 22:48 | -23.05486 | -43.34934 | 17677 ft | 228 kts | 268° |
| 2026-05-07 22:48 | -23.05462 | -43.36678 | 18056 ft | 230 kts | 268° |
| 2026-05-07 22:49 | -23.05438 | -43.38408 | 18428 ft | 232 kts | 268° |
| 2026-05-07 22:49 | -23.05413 | -43.40154 | 18806 ft | 233 kts | 268° |
| 2026-05-07 22:49 | -23.05388 | -43.41925 | 19197 ft | 234 kts | 268° |
| 2026-05-07 22:49 | -23.05363 | -43.43676 | 19580 ft | 235 kts | 268° |
| 2026-05-07 22:50 | -23.05337 | -43.45462 | 19965 ft | 235 kts | 268° |
| 2026-05-07 22:50 | -23.05311 | -43.47235 | 20344 ft | 236 kts | 268° |
| 2026-05-07 22:50 | -23.05285 | -43.49010 | 20722 ft | 237 kts | 268° |
| 2026-05-07 22:50 | -23.05258 | -43.50795 | 21099 ft | 237 kts | 268° |
| 2026-05-07 22:51 | -23.05231 | -43.52587 | 21474 ft | 238 kts | 268° |
| 2026-05-07 22:51 | -23.05204 | -43.54364 | 21845 ft | 239 kts | 268° |
| 2026-05-07 22:51 | -23.05177 | -43.56177 | 22217 ft | 240 kts | 268° |
| 2026-05-07 22:51 | -23.05149 | -43.57982 | 22583 ft | 241 kts | 268° |
| 2026-05-07 22:52 | -23.05121 | -43.59801 | 22947 ft | 242 kts | 268° |
| 2026-05-07 22:52 | -23.05092 | -43.61631 | 23306 ft | 242 kts | 268° |
| 2026-05-07 22:52 | -23.05064 | -43.63440 | 23658 ft | 243 kts | 268° |
| 2026-05-07 22:52 | -23.05035 | -43.65293 | 24019 ft | 244 kts | 269° |
| 2026-05-07 22:53 | -23.05006 | -43.67131 | 24379 ft | 245 kts | 269° |
| 2026-05-07 22:53 | -23.04976 | -43.68975 | 24741 ft | 246 kts | 268° |
| 2026-05-07 22:53 | -23.04945 | -43.70857 | 25101 ft | 248 kts | 268° |
| 2026-05-07 22:53 | -23.04914 | -43.72723 | 25454 ft | 249 kts | 268° |
| 2026-05-07 22:54 | -23.04883 | -43.74610 | 25809 ft | 251 kts | 268° |
| 2026-05-07 22:54 | -23.04852 | -43.76494 | 26108 ft | 255 kts | 268° |
| 2026-05-07 22:54 | -23.04821 | -43.78461 | 26182 ft | 269 kts | 268° |
| 2026-05-07 22:54 | -23.04787 | -43.80543 | 26198 ft | 282 kts | 268° |
| 2026-05-07 22:55 | -23.04749 | -43.82721 | 26196 ft | 290 kts | 268° |
| 2026-05-07 22:55 | -23.04711 | -43.84921 | 26149 ft | 294 kts | 268° |
| 2026-05-07 22:55 | -23.04672 | -43.87141 | 26134 ft | 296 kts | 268° |
| 2026-05-07 22:55 | -23.04633 | -43.89381 | 26131 ft | 298 kts | 268° |
| 2026-05-07 22:56 | -23.04594 | -43.91634 | 26130 ft | 299 kts | 268° |
| 2026-05-07 22:56 | -23.04555 | -43.93876 | 26126 ft | 301 kts | 268° |
| 2026-05-07 22:56 | -23.04515 | -43.96161 | 26124 ft | 301 kts | 268° |
| 2026-05-07 22:56 | -23.04474 | -43.98434 | 26124 ft | 302 kts | 268° |
| 2026-05-07 22:57 | -23.04433 | -44.00709 | 26124 ft | 302 kts | 268° |
| 2026-05-07 22:57 | -23.04390 | -44.02999 | 26126 ft | 303 kts | 268° |
| 2026-05-07 22:57 | -23.04348 | -44.05262 | 26126 ft | 303 kts | 268° |
| 2026-05-07 22:57 | -23.04306 | -44.07554 | 26127 ft | 303 kts | 268° |
| 2026-05-07 22:58 | -23.04263 | -44.09861 | 26127 ft | 304 kts | 268° |
| 2026-05-07 22:58 | -23.04220 | -44.12148 | 26097 ft | 304 kts | 267° |
| 2026-05-07 22:58 | -23.04178 | -44.14424 | 26058 ft | 304 kts | 267° |
| 2026-05-07 22:58 | -23.04134 | -44.16730 | 26018 ft | 303 kts | 267° |
| 2026-05-07 22:59 | -23.04090 | -44.19002 | 25978 ft | 302 kts | 267° |
| 2026-05-07 22:59 | -23.04047 | -44.21279 | 25970 ft | 301 kts | 267° |
| 2026-05-07 22:59 | -23.04003 | -44.23543 | 25971 ft | 301 kts | 267° |
| 2026-05-07 22:59 | -23.03958 | -44.25818 | 25972 ft | 300 kts | 267° |
| 2026-05-07 23:00 | -23.03915 | -44.28052 | 25974 ft | 300 kts | 267° |
| 2026-05-07 23:00 | -23.03869 | -44.30331 | 25977 ft | 299 kts | 267° |
| 2026-05-07 23:00 | -23.03824 | -44.32565 | 25980 ft | 299 kts | 267° |
| 2026-05-07 23:00 | -23.03779 | -44.34820 | 25983 ft | 299 kts | 267° |
| 2026-05-07 23:01 | -23.03733 | -44.37083 | 25986 ft | 298 kts | 267° |
| 2026-05-07 23:01 | -23.03687 | -44.39324 | 25988 ft | 298 kts | 267° |
| 2026-05-07 23:01 | -23.03641 | -44.41566 | 25986 ft | 298 kts | 267° |
| 2026-05-07 23:01 | -23.03594 | -44.43847 | 25985 ft | 299 kts | 267° |
| 2026-05-07 23:02 | -23.03548 | -44.46084 | 25983 ft | 299 kts | 267° |
| 2026-05-07 23:02 | -23.03500 | -44.48331 | 25980 ft | 299 kts | 267° |
| 2026-05-07 23:02 | -23.03452 | -44.50593 | 25977 ft | 299 kts | 267° |
| 2026-05-07 23:02 | -23.03404 | -44.52847 | 25978 ft | 299 kts | 267° |
| 2026-05-07 23:03 | -23.03357 | -44.55072 | 25983 ft | 298 kts | 267° |
| 2026-05-07 23:03 | -23.03308 | -44.57316 | 25990 ft | 298 kts | 267° |
| 2026-05-07 23:03 | -23.03259 | -44.59590 | 26003 ft | 298 kts | 267° |
| 2026-05-07 23:03 | -23.03210 | -44.61817 | 26017 ft | 297 kts | 267° |
| 2026-05-07 23:04 | -23.03161 | -44.64071 | 26032 ft | 297 kts | 267° |
| 2026-05-07 23:04 | -23.03111 | -44.66304 | 26052 ft | 296 kts | 268° |
| 2026-05-07 23:04 | -23.03270 | -44.68494 | 26081 ft | 293 kts | 256° |
| 2026-05-07 23:04 | -23.03748 | -44.70628 | 26090 ft | 293 kts | 253° |
| 2026-05-07 23:05 | -23.04241 | -44.72789 | 26101 ft | 293 kts | 253° |
| 2026-05-07 23:05 | -23.04725 | -44.74931 | 26106 ft | 294 kts | 253° |
| 2026-05-07 23:05 | -23.05213 | -44.77095 | 26100 ft | 294 kts | 253° |
| 2026-05-07 23:05 | -23.05696 | -44.79236 | 26101 ft | 295 kts | 253° |
| 2026-05-07 23:06 | -23.06181 | -44.81395 | 26098 ft | 295 kts | 253° |
| 2026-05-07 23:06 | -23.06668 | -44.83563 | 26089 ft | 295 kts | 253° |
| 2026-05-07 23:06 | -23.07154 | -44.85724 | 26086 ft | 295 kts | 253° |
| 2026-05-07 23:06 | -23.07640 | -44.87888 | 26084 ft | 295 kts | 253° |
| 2026-05-07 23:07 | -23.08129 | -44.90069 | 26084 ft | 295 kts | 253° |
| 2026-05-07 23:07 | -23.08608 | -44.92208 | 26085 ft | 295 kts | 253° |
| 2026-05-07 23:07 | -23.09093 | -44.94372 | 26086 ft | 295 kts | 253° |
| 2026-05-07 23:07 | -23.09581 | -44.96552 | 26087 ft | 295 kts | 253° |
| 2026-05-07 23:08 | -23.10062 | -44.98700 | 26090 ft | 295 kts | 253° |
| 2026-05-07 23:08 | -23.10547 | -45.00871 | 26098 ft | 295 kts | 253° |
| 2026-05-07 23:08 | -23.11031 | -45.03039 | 26104 ft | 295 kts | 253° |
| 2026-05-07 23:08 | -23.11510 | -45.05182 | 26106 ft | 295 kts | 253° |
| 2026-05-07 23:09 | -23.11996 | -45.07361 | 26106 ft | 295 kts | 253° |
| 2026-05-07 23:09 | -23.12476 | -45.09516 | 26106 ft | 295 kts | 253° |
| 2026-05-07 23:09 | -23.12961 | -45.11692 | 26105 ft | 295 kts | 253° |
| 2026-05-07 23:09 | -23.13440 | -45.13843 | 26103 ft | 295 kts | 254° |
| 2026-05-07 23:10 | -23.13922 | -45.16010 | 26102 ft | 296 kts | 254° |
| 2026-05-07 23:10 | -23.14406 | -45.18189 | 26100 ft | 296 kts | 254° |
| 2026-05-07 23:10 | -23.14891 | -45.20369 | 26097 ft | 296 kts | 254° |
| 2026-05-07 23:10 | -23.15368 | -45.22520 | 26095 ft | 296 kts | 254° |
| 2026-05-07 23:11 | -23.15850 | -45.24691 | 26093 ft | 296 kts | 254° |
| 2026-05-07 23:11 | -23.16334 | -45.26873 | 26094 ft | 296 kts | 254° |
| 2026-05-07 23:11 | -23.16813 | -45.29037 | 26099 ft | 295 kts | 254° |
| 2026-05-07 23:11 | -23.17294 | -45.31209 | 25946 ft | 302 kts | 254° |
| 2026-05-07 23:12 | -23.17798 | -45.33492 | 25649 ft | 311 kts | 256° |
| 2026-05-07 23:12 | -23.18184 | -45.35810 | 25496 ft | 312 kts | 258° |
| 2026-05-07 23:12 | -23.18537 | -45.38132 | 25315 ft | 313 kts | 258° |
| 2026-05-07 23:12 | -23.18879 | -45.40466 | 25129 ft | 311 kts | 258° |
| 2026-05-07 23:13 | -23.19212 | -45.42773 | 24948 ft | 308 kts | 259° |
| 2026-05-07 23:13 | -23.19543 | -45.45071 | 24760 ft | 306 kts | 259° |
| 2026-05-07 23:13 | -23.19868 | -45.47344 | 24574 ft | 303 kts | 259° |
| 2026-05-07 23:13 | -23.20189 | -45.49583 | 24410 ft | 300 kts | 259° |
| 2026-05-07 23:14 | -23.20508 | -45.51819 | 24285 ft | 296 kts | 259° |
| 2026-05-07 23:14 | -23.20822 | -45.54017 | 24165 ft | 293 kts | 259° |
| 2026-05-07 23:14 | -23.21131 | -45.56185 | 24047 ft | 291 kts | 259° |
| 2026-05-07 23:14 | -23.21440 | -45.58349 | 23928 ft | 289 kts | 259° |
| 2026-05-07 23:15 | -23.21746 | -45.60496 | 23811 ft | 288 kts | 259° |
| 2026-05-07 23:15 | -23.22049 | -45.62633 | 23703 ft | 286 kts | 259° |
| 2026-05-07 23:15 | -23.22351 | -45.64756 | 23597 ft | 285 kts | 259° |
| 2026-05-07 23:15 | -23.22656 | -45.66907 | 23494 ft | 285 kts | 260° |
| 2026-05-07 23:16 | -23.22953 | -45.69001 | 23394 ft | 284 kts | 260° |
| 2026-05-07 23:16 | -23.23256 | -45.71140 | 23293 ft | 283 kts | 260° |
| 2026-05-07 23:16 | -23.23553 | -45.73241 | 23194 ft | 283 kts | 260° |
| 2026-05-07 23:16 | -23.23852 | -45.75351 | 23092 ft | 283 kts | 260° |
| 2026-05-07 23:17 | -23.24157 | -45.77514 | 22725 ft | 293 kts | 260° |
| 2026-05-07 23:17 | -23.24467 | -45.79710 | 22325 ft | 301 kts | 260° |
| 2026-05-07 23:17 | -23.24787 | -45.81982 | 21902 ft | 307 kts | 260° |
| 2026-05-07 23:17 | -23.25109 | -45.84271 | 21472 ft | 310 kts | 261° |
| 2026-05-07 23:18 | -23.25433 | -45.86577 | 21040 ft | 309 kts | 261° |
| 2026-05-07 23:18 | -23.25759 | -45.88907 | 20593 ft | 308 kts | 261° |
| 2026-05-07 23:18 | -23.26077 | -45.91168 | 20168 ft | 308 kts | 261° |
| 2026-05-07 23:18 | -23.26400 | -45.93477 | 19743 ft | 308 kts | 261° |
| 2026-05-07 23:19 | -23.26722 | -45.95780 | 19325 ft | 307 kts | 261° |
| 2026-05-07 23:19 | -23.27040 | -45.98046 | 18921 ft | 307 kts | 261° |
| 2026-05-07 23:19 | -23.27363 | -46.00357 | 18510 ft | 306 kts | 261° |
| 2026-05-07 23:19 | -23.27681 | -46.02642 | 18105 ft | 306 kts | 261° |
| 2026-05-07 23:20 | -23.28000 | -46.04924 | 17705 ft | 306 kts | 261° |
| 2026-05-07 23:20 | -23.28317 | -46.07199 | 17308 ft | 306 kts | 261° |
| 2026-05-07 23:20 | -23.28637 | -46.09500 | 16910 ft | 306 kts | 261° |
| 2026-05-07 23:20 | -23.28952 | -46.11771 | 16520 ft | 306 kts | 262° |
| 2026-05-07 23:21 | -23.29269 | -46.14053 | 16128 ft | 306 kts | 262° |
| 2026-05-07 23:21 | -23.29583 | -46.16317 | 15740 ft | 306 kts | 262° |
| 2026-05-07 23:21 | -23.29899 | -46.18600 | 15347 ft | 306 kts | 262° |
| 2026-05-07 23:21 | -23.30217 | -46.20901 | 14949 ft | 305 kts | 262° |
| 2026-05-07 23:22 | -23.30528 | -46.23152 | 14559 ft | 304 kts | 262° |
| 2026-05-07 23:22 | -23.30844 | -46.25438 | 14162 ft | 303 kts | 262° |
| 2026-05-07 23:22 | -23.31152 | -46.27670 | 13772 ft | 302 kts | 262° |
| 2026-05-07 23:22 | -23.31463 | -46.29928 | 13375 ft | 301 kts | 263° |
| 2026-05-07 23:23 | -23.31771 | -46.32171 | 12981 ft | 300 kts | 263° |
| 2026-05-07 23:23 | -23.32081 | -46.34421 | 12585 ft | 298 kts | 263° |
| 2026-05-07 23:23 | -23.32382 | -46.36626 | 12199 ft | 297 kts | 263° |
| 2026-05-07 23:23 | -23.32692 | -46.38864 | 11807 ft | 295 kts | 263° |
| 2026-05-07 23:24 | -23.32996 | -46.41036 | 11427 ft | 294 kts | 263° |
| 2026-05-07 23:24 | -23.33308 | -46.43235 | 11043 ft | 292 kts | 263° |
| 2026-05-07 23:24 | -23.33620 | -46.45405 | 10662 ft | 290 kts | 263° |
| 2026-05-07 23:24 | -23.33931 | -46.47551 | 10283 ft | 289 kts | 263° |
| 2026-05-07 23:25 | -23.34248 | -46.49703 | 9902 ft | 287 kts | 263° |
| 2026-05-07 23:25 | -23.34656 | -46.51836 | 9520 ft | 287 kts | 257° |
| 2026-05-07 23:25 | -23.35199 | -46.53910 | 9135 ft | 287 kts | 250° |
| 2026-05-07 23:25 | -23.36037 | -46.55880 | 8758 ft | 287 kts | 246° |
| 2026-05-07 23:26 | -23.36888 | -46.57825 | 8352 ft | 287 kts | 246° |
| 2026-05-07 23:26 | -23.37726 | -46.59755 | 7876 ft | 279 kts | 246° |
| 2026-05-07 23:26 | -23.38532 | -46.61620 | 7398 ft | 269 kts | 246° |
| 2026-05-07 23:26 | -23.39308 | -46.63441 | 6913 ft | 261 kts | 246° |
| 2026-05-07 23:27 | -23.40750 | -46.66871 | 6058 ft | 248 kts | 244° |
| 2026-05-07 23:27 | -23.41696 | -46.68333 | 5994 ft | 230 kts | 226° |
| 2026-05-07 23:27 | -23.43041 | -46.69008 | 5992 ft | 214 kts | 183° |
| 2026-05-07 23:28 | -23.44273 | -46.68651 | 5967 ft | 201 kts | 145° |
| 2026-05-07 23:28 | -23.45157 | -46.67783 | 5786 ft | 198 kts | 126° |
| 2026-05-07 23:28 | -23.45765 | -46.66340 | 5428 ft | 199 kts | 99° |
| 2026-05-07 23:28 | -23.46215 | -46.65121 | 5154 ft | 204 kts | 115° |